createdAt,value
2023-05-21T00:01:48.675Z,75.25
2023-05-21T00:04:18.134Z,75.21
2023-05-21T00:06:46.124Z,75.04
2023-05-21T00:09:14.089Z,75.22
2023-05-21T00:11:42.031Z,75.17
2023-05-21T00:14:10.174Z,75.16
2023-05-21T00:16:38.389Z,75.27
2023-05-21T00:19:06.668Z,75.17
2023-05-21T00:21:34.523Z,75.05
2023-05-21T00:24:02.632Z,74.96
2023-05-21T00:26:30.610Z,75.09
2023-05-21T00:28:58.660Z,74.96
2023-05-21T00:31:27.021Z,75.01
2023-05-21T00:33:54.791Z,74.80
2023-05-21T00:36:24.272Z,74.84
2023-05-21T00:38:52.322Z,74.95
2023-05-21T00:41:20.416Z,74.99
2023-05-21T00:43:48.307Z,74.85
2023-05-21T00:46:19.782Z,74.86
2023-05-21T00:48:48.458Z,75.09
2023-05-21T00:51:18.597Z,75.64
2023-05-21T00:53:49.612Z,75.73
2023-05-21T00:56:17.698Z,74.97
2023-05-21T00:58:45.573Z,74.84
2023-05-21T01:01:14.205Z,74.83
2023-05-21T01:03:42.445Z,75.05
2023-05-21T01:06:11.414Z,74.91
2023-05-21T01:08:41.062Z,74.99
2023-05-21T01:11:09.965Z,74.93
2023-05-21T01:13:39.962Z,74.90
2023-05-21T01:16:09.345Z,74.75
2023-05-21T01:18:38.244Z,74.63
2023-05-21T01:21:07.760Z,74.82
2023-05-21T01:23:36.151Z,75.05
2023-05-21T01:26:04.007Z,75.14
2023-05-21T01:28:34.817Z,75.30
2023-05-21T01:31:16.996Z,75.34
2023-05-21T01:33:49.398Z,75.25
2023-05-21T01:36:26.956Z,75.22
2023-05-21T01:39:09.027Z,75.09
2023-05-21T01:41:39.213Z,74.89
2023-05-21T01:44:07.402Z,74.97
2023-05-21T01:46:36.801Z,74.77
2023-05-21T01:49:06.459Z,74.81
2023-05-21T01:51:35.000Z,74.82
2023-05-21T01:54:02.911Z,74.97
2023-05-21T01:56:34.124Z,75.02
2023-05-21T01:59:02.208Z,74.95
2023-05-21T02:01:30.509Z,74.97
2023-05-21T02:03:59.337Z,74.96
2023-05-21T02:06:27.304Z,75.00
2023-05-21T02:08:55.827Z,74.89
2023-05-21T02:11:24.111Z,74.87
2023-05-21T02:13:52.460Z,75.02
2023-05-21T02:16:22.460Z,75.12
2023-05-21T02:18:57.614Z,75.05
2023-05-21T02:21:25.794Z,75.07
2023-05-21T02:23:53.973Z,74.87
2023-05-21T02:26:23.063Z,74.78
2023-05-21T02:28:55.525Z,74.89
2023-05-21T02:31:23.722Z,75.21
2023-05-21T02:33:51.776Z,75.17
2023-05-21T02:36:19.716Z,75.24
2023-05-21T02:38:48.322Z,75.08
2023-05-21T02:41:16.130Z,75.36
2023-05-21T02:43:44.091Z,75.47
2023-05-21T02:46:12.097Z,75.15
2023-05-21T02:48:39.987Z,75.22
2023-05-21T02:51:07.956Z,75.14
2023-05-21T02:53:35.803Z,75.16
2023-05-21T02:56:04.047Z,75.18
2023-05-21T02:58:32.211Z,75.26
2023-05-21T03:01:00.416Z,75.35
2023-05-21T03:03:28.546Z,74.97
2023-05-21T03:05:56.581Z,75.06
2023-05-21T03:08:24.917Z,74.97
2023-05-21T03:10:52.912Z,75.01
2023-05-21T03:13:21.576Z,75.13
2023-05-21T03:15:49.929Z,75.10
2023-05-21T03:18:17.985Z,75.08
2023-05-21T03:20:45.762Z,75.15
2023-05-21T03:23:16.492Z,75.14
2023-05-21T03:25:46.198Z,75.55
2023-05-21T03:28:14.799Z,75.37
2023-05-21T03:30:46.595Z,75.22
2023-05-21T03:33:14.600Z,75.20
2023-05-21T03:35:42.523Z,75.37
2023-05-21T03:38:10.540Z,75.42
2023-05-21T03:40:38.408Z,75.38
2023-05-21T03:43:06.105Z,75.31
2023-05-21T03:45:34.272Z,75.46
2023-05-21T03:48:02.181Z,75.43
2023-05-21T03:50:30.045Z,75.72
2023-05-21T03:52:57.866Z,75.58
2023-05-21T03:55:29.560Z,75.53
2023-05-21T03:57:57.531Z,75.84
2023-05-21T04:00:25.536Z,75.97
2023-05-21T04:02:55.505Z,75.82
2023-05-21T04:05:23.628Z,75.67
2023-05-21T04:07:51.651Z,75.83
2023-05-21T04:10:19.508Z,75.56
2023-05-21T04:12:49.359Z,75.74
2023-05-21T04:15:18.721Z,75.99
2023-05-21T04:17:47.182Z,76.34
2023-05-21T04:20:17.107Z,75.97
2023-05-21T04:22:45.117Z,76.68
2023-05-21T04:25:13.062Z,76.52
2023-05-21T04:27:42.782Z,76.30
2023-05-21T04:30:11.424Z,76.44
2023-05-21T04:32:39.512Z,76.51
2023-05-21T04:35:07.864Z,76.53
2023-05-21T04:37:36.474Z,76.44
2023-05-21T04:40:04.855Z,76.90
2023-05-21T04:42:33.184Z,76.72
2023-05-21T04:45:01.387Z,76.90
2023-05-21T04:47:30.566Z,76.72
2023-05-21T04:50:02.630Z,76.78
2023-05-21T04:52:31.464Z,76.88
2023-05-21T04:54:59.293Z,76.88
2023-05-21T04:57:28.536Z,76.86
2023-05-21T04:59:58.036Z,77.03
2023-05-21T05:02:25.980Z,76.99
2023-05-21T05:04:54.051Z,76.97
2023-05-21T05:07:22.860Z,77.05
2023-05-21T05:09:50.797Z,76.79
2023-05-21T05:12:18.907Z,76.81
2023-05-21T05:14:47.123Z,76.85
2023-05-21T05:17:14.943Z,76.71
2023-05-21T05:19:42.959Z,76.57
2023-05-21T05:22:13.417Z,76.61
2023-05-21T05:24:42.048Z,76.56
2023-05-21T05:27:09.970Z,76.59
2023-05-21T05:29:38.231Z,76.63
2023-05-21T05:32:06.496Z,76.66
2023-05-21T05:34:34.583Z,76.37
2023-05-21T05:37:03.063Z,76.40
2023-05-21T05:39:30.944Z,76.49
2023-05-21T05:41:58.980Z,76.49
2023-05-21T05:44:27.051Z,76.33
2023-05-21T05:46:54.828Z,76.01
2023-05-21T05:49:23.050Z,76.17
2023-05-21T05:51:51.173Z,75.84
2023-05-21T05:54:19.671Z,75.66
2023-05-21T05:56:47.556Z,75.52
2023-05-21T05:59:16.594Z,75.46
2023-05-21T06:01:44.496Z,75.51
2023-05-21T06:04:12.427Z,75.34
2023-05-21T06:06:40.348Z,75.29
2023-05-21T06:09:08.504Z,75.26
2023-05-21T06:11:36.439Z,74.96
2023-05-21T06:14:04.482Z,74.37
2023-05-21T06:16:32.654Z,74.33
2023-05-21T06:19:01.032Z,74.20
2023-05-21T06:21:29.102Z,74.37
2023-05-21T06:23:56.982Z,73.49
2023-05-21T06:26:24.894Z,73.40
2023-05-21T06:28:53.012Z,73.70
2023-05-21T06:31:22.513Z,73.45
2023-05-21T06:33:50.713Z,73.55
2023-05-21T06:36:18.928Z,73.44
2023-05-21T06:38:48.155Z,72.66
2023-05-21T06:41:16.286Z,72.65
2023-05-21T06:43:44.149Z,72.59
2023-05-21T06:46:12.046Z,72.24
2023-05-21T06:48:39.935Z,72.20
2023-05-21T06:51:07.913Z,71.79
2023-05-21T06:53:35.808Z,71.77
2023-05-21T06:56:03.990Z,71.97
2023-05-21T06:58:31.782Z,71.27
2023-05-21T07:00:59.866Z,70.94
2023-05-21T07:03:28.041Z,70.61
2023-05-21T07:05:57.811Z,70.69
2023-05-21T07:08:25.719Z,70.10
2023-05-21T07:10:53.781Z,70.54
2023-05-21T07:13:22.224Z,70.31
2023-05-21T07:15:50.433Z,69.82
2023-05-21T07:18:19.269Z,69.98
2023-05-21T07:20:47.592Z,69.71
2023-05-21T07:23:15.850Z,69.89
2023-05-21T07:25:43.782Z,69.83
2023-05-21T07:28:11.722Z,69.11
2023-05-21T07:30:39.736Z,68.58
2023-05-21T07:33:08.165Z,69.10
2023-05-21T07:35:36.538Z,69.02
2023-05-21T07:38:04.982Z,68.52
2023-05-21T07:40:32.769Z,67.66
2023-05-21T07:43:01.154Z,68.67
2023-05-21T07:45:29.041Z,68.47
2023-05-21T07:47:56.901Z,68.60
2023-05-21T07:50:25.850Z,68.83
2023-05-21T07:52:53.979Z,68.15
2023-05-21T07:55:21.970Z,68.38
2023-05-21T07:57:52.540Z,68.55
2023-05-21T08:00:24.238Z,68.47
2023-05-21T08:02:52.637Z,67.72
2023-05-21T08:05:21.692Z,67.34
2023-05-21T08:07:49.833Z,67.45
2023-05-21T08:10:19.485Z,66.71
2023-05-21T08:12:47.534Z,66.27
2023-05-21T08:15:15.488Z,66.93
2023-05-21T08:17:43.573Z,65.77
2023-05-21T08:20:13.665Z,67.01
2023-05-21T08:22:41.633Z,65.64
2023-05-21T08:25:09.990Z,65.27
2023-05-21T08:27:38.345Z,65.32
2023-05-21T08:30:06.895Z,65.95
2023-05-21T08:32:34.807Z,65.98
2023-05-21T08:35:02.983Z,65.50
2023-05-21T08:37:30.983Z,65.60
2023-05-21T08:39:58.941Z,64.54
2023-05-21T08:42:37.049Z,63.57
2023-05-21T08:45:07.327Z,63.23
2023-05-21T08:47:37.301Z,62.88
2023-05-21T08:50:05.669Z,63.26
2023-05-21T08:52:33.571Z,62.36
2023-05-21T08:55:03.733Z,61.72
2023-05-21T08:57:31.997Z,61.94
2023-05-21T09:00:00.338Z,63.09
2023-05-21T09:02:30.890Z,62.30
2023-05-21T09:04:59.521Z,60.56
2023-05-21T09:07:29.346Z,60.94
2023-05-21T09:09:59.024Z,61.81
2023-05-21T09:12:28.298Z,60.68
2023-05-21T09:14:58.599Z,62.57
2023-05-21T09:17:26.428Z,62.85
2023-05-21T09:20:14.867Z,62.03
2023-05-21T09:22:50.092Z,60.85
2023-05-21T09:25:22.125Z,60.44
2023-05-21T09:27:49.917Z,59.17
2023-05-21T09:30:21.865Z,59.69
2023-05-21T09:32:57.645Z,59.89
2023-05-21T09:35:25.892Z,60.34
2023-05-21T09:37:54.158Z,59.46
2023-05-21T09:40:23.780Z,58.70
2023-05-21T09:42:55.435Z,58.48
2023-05-21T09:45:27.232Z,59.27
2023-05-21T09:47:56.450Z,57.37
2023-05-21T09:50:28.318Z,57.20
2023-05-21T09:52:56.448Z,58.13
2023-05-21T09:55:26.554Z,57.83
2023-05-21T09:57:54.961Z,56.71
2023-05-21T10:00:28.178Z,55.82
2023-05-21T10:03:01.673Z,56.57
2023-05-21T10:05:30.618Z,55.45
2023-05-21T10:08:03.633Z,55.07
2023-05-21T10:10:32.769Z,56.57
2023-05-21T10:13:07.381Z,56.08
2023-05-21T10:15:41.255Z,53.80
2023-05-21T10:18:10.548Z,53.90
2023-05-21T10:20:39.229Z,53.59
2023-05-21T10:23:07.949Z,53.09
2023-05-21T10:25:36.427Z,55.24
2023-05-21T10:28:04.837Z,55.09
2023-05-21T10:30:33.111Z,52.81
2023-05-21T10:33:02.396Z,53.79
2023-05-21T10:35:30.995Z,54.31
2023-05-21T10:37:59.394Z,53.65
2023-05-21T10:40:27.354Z,52.82
2023-05-21T10:43:14.862Z,51.08
2023-05-21T10:45:47.975Z,53.28
2023-05-21T10:49:06.864Z,52.45
2023-05-21T10:51:39.957Z,52.34
2023-05-21T10:54:26.740Z,51.28
2023-05-21T10:57:18.147Z,50.04
2023-05-21T10:59:47.562Z,50.91
2023-05-21T11:02:16.608Z,50.86
2023-05-21T11:04:45.437Z,51.31
2023-05-21T11:07:13.554Z,51.14
2023-05-21T11:09:42.028Z,51.25
2023-05-21T11:12:10.547Z,50.83
2023-05-21T11:14:40.363Z,49.66
2023-05-21T11:17:36.429Z,49.29
2023-05-21T11:20:08.126Z,49.45
2023-05-21T11:22:36.600Z,49.12
2023-05-21T11:25:05.262Z,48.47
2023-05-21T11:27:37.192Z,49.45
2023-05-21T11:30:09.577Z,46.83
2023-05-21T11:33:01.700Z,47.47
2023-05-21T11:35:29.763Z,46.79
2023-05-21T11:37:57.653Z,47.08
2023-05-21T11:40:26.710Z,47.34
2023-05-21T11:42:56.207Z,48.41
2023-05-21T11:45:30.847Z,47.47
2023-05-21T11:47:58.984Z,46.79
2023-05-21T11:50:27.496Z,46.95
2023-05-21T11:52:56.276Z,46.96
2023-05-21T11:55:26.145Z,46.86
2023-05-21T11:57:55.442Z,46.42
2023-05-21T12:00:23.585Z,47.34
2023-05-21T12:02:52.674Z,44.74
2023-05-21T12:05:21.620Z,45.40
2023-05-21T12:07:52.537Z,44.73
2023-05-21T12:10:22.346Z,46.13
2023-05-21T12:12:54.961Z,45.99
2023-05-21T12:15:26.595Z,45.86
2023-05-21T12:17:55.237Z,46.48
2023-05-21T12:20:23.907Z,46.47
2023-05-21T12:22:52.039Z,46.12
2023-05-21T12:25:21.142Z,44.59
2023-05-21T12:27:52.875Z,43.55
2023-05-21T12:30:21.329Z,44.29
2023-05-21T12:32:49.349Z,45.39
2023-05-21T12:35:24.301Z,45.12
2023-05-21T12:37:52.807Z,44.34
2023-05-21T12:40:21.187Z,44.82
2023-05-21T12:42:49.722Z,44.03
2023-05-21T12:45:18.976Z,43.38
2023-05-21T12:47:56.059Z,44.60
2023-05-21T12:50:24.597Z,44.95
2023-05-21T12:52:56.145Z,43.80
2023-05-21T12:55:26.481Z,43.98
2023-05-21T12:58:08.654Z,43.40
2023-05-21T13:00:37.395Z,44.23
2023-05-21T13:03:06.953Z,43.63
2023-05-21T13:05:35.864Z,44.38
2023-05-21T13:08:03.965Z,43.99
2023-05-21T13:10:31.839Z,43.87
2023-05-21T13:13:00.417Z,43.37
2023-05-21T13:15:28.411Z,43.34
2023-05-21T13:17:57.722Z,43.38
2023-05-21T13:20:27.853Z,43.55
2023-05-21T13:22:56.294Z,43.59
2023-05-21T13:25:32.738Z,43.53
2023-05-21T13:28:03.187Z,43.59
2023-05-21T13:30:31.483Z,42.90
2023-05-21T13:32:59.702Z,43.31
2023-05-21T13:35:27.484Z,43.58
2023-05-21T13:37:55.553Z,41.99
2023-05-21T13:40:24.189Z,42.06
2023-05-21T13:42:52.116Z,41.81
2023-05-21T13:45:20.960Z,42.27
2023-05-21T13:47:49.244Z,42.45
2023-05-21T13:50:17.356Z,42.69
2023-05-21T13:52:46.405Z,42.41
2023-05-21T13:55:16.199Z,41.70
2023-05-21T13:57:44.471Z,42.02
2023-05-21T14:00:15.383Z,41.13
2023-05-21T14:02:43.851Z,41.79
2023-05-21T14:05:13.196Z,41.49
2023-05-21T14:07:42.245Z,42.04
2023-05-21T14:10:11.124Z,41.95
2023-05-21T14:12:39.089Z,41.29
2023-05-21T14:15:07.818Z,41.34
2023-05-21T14:17:36.160Z,41.74
2023-05-21T14:20:04.160Z,40.45
2023-05-21T14:22:32.058Z,41.33
2023-05-21T14:25:00.048Z,41.27
2023-05-21T14:27:27.884Z,41.95
2023-05-21T14:29:55.661Z,41.66
2023-05-21T14:32:24.217Z,41.48
2023-05-21T14:34:52.126Z,41.00
2023-05-21T14:37:19.906Z,40.27
2023-05-21T14:39:48.084Z,40.80
2023-05-21T14:42:16.065Z,40.64
2023-05-21T14:44:43.961Z,40.48
2023-05-21T14:47:11.978Z,40.46
2023-05-21T14:49:39.777Z,40.97
2023-05-21T14:52:07.658Z,40.73
2023-05-21T14:54:36.474Z,40.73
2023-05-21T14:57:04.349Z,40.58
2023-05-21T14:59:32.212Z,40.85
2023-05-21T15:02:00.360Z,40.55
2023-05-21T15:04:28.435Z,41.36
2023-05-21T15:06:56.151Z,41.25
2023-05-21T15:09:24.500Z,41.33
2023-05-21T15:11:53.567Z,41.19
2023-05-21T15:14:21.554Z,40.71
2023-05-21T15:16:49.529Z,39.86
2023-05-21T15:19:17.628Z,40.36
2023-05-21T15:21:45.491Z,40.00
2023-05-21T15:24:13.254Z,40.47
2023-05-21T15:26:41.179Z,40.19
2023-05-21T15:29:09.191Z,39.94
2023-05-21T15:31:37.539Z,40.25
2023-05-21T15:34:05.664Z,40.42
2023-05-21T15:36:33.547Z,39.87
2023-05-21T15:39:03.799Z,39.93
2023-05-21T15:41:35.435Z,39.39
2023-05-21T15:44:03.539Z,39.25
2023-05-21T15:46:31.829Z,39.25
2023-05-21T15:48:59.950Z,39.22
2023-05-21T15:51:27.977Z,38.47
2023-05-21T15:53:56.104Z,38.64
2023-05-21T15:56:24.018Z,38.00
2023-05-21T15:58:52.219Z,38.54
2023-05-21T16:01:20.089Z,39.18
2023-05-21T16:03:48.184Z,39.42
2023-05-21T16:06:16.233Z,38.42
2023-05-21T16:08:44.234Z,37.65
2023-05-21T16:11:12.497Z,37.18
2023-05-21T16:13:41.230Z,38.02
2023-05-21T16:16:09.138Z,37.97
2023-05-21T16:18:37.852Z,37.71
2023-05-21T16:21:05.680Z,37.98
2023-05-21T16:23:34.476Z,38.08
2023-05-21T16:26:02.320Z,38.21
2023-05-21T16:28:30.312Z,38.66
2023-05-21T16:30:58.344Z,38.46
2023-05-21T16:33:26.444Z,38.79
2023-05-21T16:35:54.555Z,38.58
2023-05-21T16:38:22.614Z,38.60
2023-05-21T16:40:50.672Z,39.15
2023-05-21T16:43:18.471Z,39.12
2023-05-21T16:45:47.366Z,39.36
2023-05-21T16:48:16.423Z,38.89
2023-05-21T16:50:44.430Z,39.22
2023-05-21T16:53:12.897Z,39.53
2023-05-21T16:55:40.687Z,39.05
2023-05-21T16:58:09.600Z,38.83
2023-05-21T17:00:37.784Z,39.27
2023-05-21T17:03:05.899Z,39.57
2023-05-21T17:05:34.746Z,39.15
2023-05-21T17:08:02.999Z,39.22
2023-05-21T17:10:33.039Z,39.60
2023-05-21T17:13:09.640Z,39.78
2023-05-21T17:15:45.986Z,39.92
2023-05-21T17:18:14.131Z,39.28
2023-05-21T17:20:43.997Z,39.66
2023-05-21T17:23:12.442Z,39.82
2023-05-21T17:25:41.096Z,39.60
2023-05-21T17:28:09.532Z,39.55
2023-05-21T17:30:37.455Z,39.86
2023-05-21T17:33:06.746Z,40.20
2023-05-21T17:35:34.800Z,39.94
2023-05-21T17:38:03.173Z,39.92
2023-05-21T17:40:31.109Z,40.01
2023-05-21T17:42:59.167Z,40.08
2023-05-21T17:45:27.017Z,40.45
2023-05-21T17:47:56.141Z,40.71
2023-05-21T17:50:26.292Z,40.43
2023-05-21T17:52:54.194Z,40.40
2023-05-21T17:55:21.962Z,40.79
2023-05-21T17:57:49.871Z,40.67
2023-05-21T18:00:17.995Z,41.17
2023-05-21T18:02:46.029Z,41.25
2023-05-21T18:05:13.951Z,41.26
2023-05-21T18:07:41.812Z,41.81
2023-05-21T18:10:10.014Z,42.00
2023-05-21T18:12:38.009Z,41.82
2023-05-21T18:15:06.681Z,42.20
2023-05-21T18:17:34.996Z,42.17
2023-05-21T18:20:04.544Z,42.81
2023-05-21T18:22:32.648Z,42.95
2023-05-21T18:25:00.451Z,43.02
2023-05-21T18:27:28.586Z,42.97
2023-05-21T18:29:57.031Z,42.85
2023-05-21T18:32:25.208Z,42.53
2023-05-21T18:34:53.220Z,42.97
2023-05-21T18:37:21.855Z,43.06
2023-05-21T18:39:49.760Z,43.10
2023-05-21T18:42:17.706Z,43.33
2023-05-21T18:44:46.617Z,43.98
2023-05-21T18:47:14.505Z,43.60
2023-05-21T18:49:42.639Z,43.47
2023-05-21T18:52:10.867Z,43.61
2023-05-21T18:54:38.799Z,43.58
2023-05-21T18:57:06.634Z,43.61
2023-05-21T18:59:34.400Z,44.53
2023-05-21T19:02:03.572Z,45.11
2023-05-21T19:04:32.145Z,45.02
2023-05-21T19:07:00.533Z,45.06
2023-05-21T19:09:28.786Z,44.98
2023-05-21T19:11:57.558Z,44.89
2023-05-21T19:14:25.721Z,44.85
2023-05-21T19:16:53.487Z,45.13
2023-05-21T19:19:21.741Z,45.15
2023-05-21T19:21:49.767Z,45.30
2023-05-21T19:24:17.790Z,45.20
2023-05-21T19:26:45.816Z,45.24
2023-05-21T19:29:13.610Z,45.61
2023-05-21T19:31:42.958Z,45.71
2023-05-21T19:34:11.032Z,46.11
2023-05-21T19:36:52.372Z,45.76
2023-05-21T19:39:21.657Z,45.79
2023-05-21T19:41:49.554Z,46.42
2023-05-21T19:44:17.569Z,46.66
2023-05-21T19:46:45.523Z,46.40
2023-05-21T19:49:16.083Z,46.18
2023-05-21T19:51:44.223Z,46.75
2023-05-21T19:54:12.066Z,46.92
2023-05-21T19:56:40.204Z,46.94
2023-05-21T19:59:08.097Z,47.25
2023-05-21T20:01:39.432Z,47.25
2023-05-21T20:04:07.967Z,47.37
2023-05-21T20:06:36.259Z,47.61
2023-05-21T20:09:05.389Z,48.00
2023-05-21T20:11:33.778Z,48.42
2023-05-21T20:14:02.363Z,48.52
2023-05-21T20:16:30.651Z,48.71
2023-05-21T20:18:58.801Z,49.03
2023-05-21T20:21:26.917Z,49.00
2023-05-21T20:23:54.987Z,49.47
2023-05-21T20:26:23.376Z,49.65
2023-05-21T20:28:51.168Z,49.79
2023-05-21T20:31:19.246Z,49.72
2023-05-21T20:33:50.893Z,49.93
2023-05-21T20:36:21.396Z,49.79
2023-05-21T20:38:49.142Z,50.09
2023-05-21T20:41:17.350Z,50.00
2023-05-21T20:43:45.533Z,50.28
2023-05-21T20:46:13.762Z,50.29
2023-05-21T20:48:41.873Z,50.47
2023-05-21T20:51:09.979Z,50.30
2023-05-21T20:53:37.938Z,50.41
2023-05-21T20:56:08.639Z,50.73
2023-05-21T20:58:36.960Z,50.66
2023-05-21T21:01:04.964Z,50.78
2023-05-21T21:03:34.426Z,50.67
2023-05-21T21:06:03.368Z,50.58
2023-05-21T21:08:31.611Z,50.28
2023-05-21T21:10:59.712Z,50.42
2023-05-21T21:13:27.658Z,50.32
2023-05-21T21:15:55.812Z,50.71
2023-05-21T21:18:23.748Z,50.53
2023-05-21T21:20:51.597Z,50.85
2023-05-21T21:23:20.110Z,51.13
2023-05-21T21:25:48.050Z,51.32
2023-05-21T21:28:16.000Z,51.26
2023-05-21T21:30:44.481Z,51.40
2023-05-21T21:33:14.500Z,51.57
2023-05-21T21:35:42.745Z,51.69
2023-05-21T21:38:10.791Z,51.44
2023-05-21T21:40:38.935Z,51.33
2023-05-21T21:43:06.999Z,51.36
2023-05-21T21:45:34.861Z,51.14
2023-05-21T21:48:02.929Z,51.39
2023-05-21T21:50:30.800Z,51.57
2023-05-21T21:53:00.103Z,51.50
2023-05-21T21:55:29.841Z,51.91
2023-05-21T21:57:57.771Z,51.81
2023-05-21T22:00:26.877Z,51.89
2023-05-21T22:02:54.900Z,52.27
2023-05-21T22:05:22.732Z,52.02
2023-05-21T22:07:51.464Z,52.10
2023-05-21T22:10:19.543Z,52.28
2023-05-21T22:12:47.542Z,52.45
2023-05-21T22:15:20.500Z,52.56
2023-05-21T22:17:52.168Z,52.46
2023-05-21T22:20:22.211Z,52.89
2023-05-21T22:22:50.257Z,52.69
2023-05-21T22:25:18.193Z,52.62
2023-05-21T22:27:46.478Z,52.92
2023-05-21T22:30:14.429Z,52.88
2023-05-21T22:32:42.190Z,53.06
2023-05-21T22:35:10.355Z,53.17
2023-05-21T22:37:38.784Z,53.36
2023-05-21T22:40:07.102Z,53.72
2023-05-21T22:42:36.547Z,53.50
2023-05-21T22:45:04.957Z,53.75
2023-05-21T22:47:32.850Z,54.32
2023-05-21T22:50:01.653Z,54.23
2023-05-21T22:52:29.482Z,54.51
2023-05-21T22:54:58.950Z,54.74
2023-05-21T22:57:27.697Z,54.68
2023-05-21T22:59:56.088Z,55.00
2023-05-21T23:02:23.988Z,54.98
2023-05-21T23:04:52.236Z,55.20
2023-05-21T23:07:20.117Z,55.15
2023-05-21T23:09:48.013Z,55.32
2023-05-21T23:12:16.418Z,55.29
2023-05-21T23:14:44.337Z,55.48
2023-05-21T23:17:12.105Z,55.43
2023-05-21T23:19:40.402Z,55.63
2023-05-21T23:22:08.332Z,55.98
2023-05-21T23:24:36.489Z,55.71
2023-05-21T23:27:07.198Z,56.03
2023-05-21T23:29:35.203Z,55.98
2023-05-21T23:32:05.347Z,56.20
2023-05-21T23:34:33.544Z,55.95
2023-05-21T23:37:01.422Z,56.44
2023-05-21T23:39:29.279Z,56.52
2023-05-21T23:41:57.430Z,56.65
2023-05-21T23:44:25.466Z,56.69
2023-05-21T23:46:53.233Z,56.71
2023-05-21T23:49:21.321Z,56.72
2023-05-21T23:51:50.834Z,57.09
2023-05-21T23:54:18.908Z,57.15
2023-05-21T23:56:47.044Z,57.18
2023-05-21T23:59:16.248Z,57.08
